sensor_id;sensor_type;location;lat;lon;timestamp;P1;durP1;ratioP1;P2;durP2;ratioP2
43048;SDS011;28673;44.412;11.918;2023-04-09T00:01:30;30.45;;;18.73;;
43048;SDS011;28673;44.412;11.918;2023-04-09T00:03:56;25.65;;;18.05;;
43048;SDS011;28673;44.412;11.918;2023-04-09T00:06:22;27.02;;;18.38;;
43048;SDS011;28673;44.412;11.918;2023-04-09T00:08:47;35.28;;;20.80;;
43048;SDS011;28673;44.412;11.918;2023-04-09T00:11:13;25.17;;;18.17;;
43048;SDS011;28673;44.412;11.918;2023-04-09T00:13:39;32.13;;;20.73;;
43048;SDS011;28673;44.412;11.918;2023-04-09T00:16:08;29.98;;;19.88;;
43048;SDS011;28673;44.412;11.918;2023-04-09T00:18:34;35.47;;;24.13;;
43048;SDS011;28673;44.412;11.918;2023-04-09T00:21:00;33.58;;;23.17;;
43048;SDS011;28673;44.412;11.918;2023-04-09T00:23:26;30.08;;;22.08;;
43048;SDS011;28673;44.412;11.918;2023-04-09T00:25:51;38.75;;;23.25;;
43048;SDS011;28673;44.412;11.918;2023-04-09T00:28:17;32.47;;;23.17;;
43048;SDS011;28673;44.412;11.918;2023-04-09T00:30:43;38.80;;;22.80;;
43048;SDS011;28673;44.412;11.918;2023-04-09T00:33:09;33.83;;;22.33;;
43048;SDS011;28673;44.412;11.918;2023-04-09T00:35:35;36.85;;;23.73;;
43048;SDS011;28673;44.412;11.918;2023-04-09T00:38:01;30.13;;;21.92;;
43048;SDS011;28673;44.412;11.918;2023-04-09T00:40:27;38.78;;;22.88;;
43048;SDS011;28673;44.412;11.918;2023-04-09T00:42:53;32.80;;;22.00;;
43048;SDS011;28673;44.412;11.918;2023-04-09T00:45:19;34.28;;;21.42;;
43048;SDS011;28673;44.412;11.918;2023-04-09T00:47:45;37.03;;;22.33;;
43048;SDS011;28673;44.412;11.918;2023-04-09T00:50:11;29.70;;;20.52;;
43048;SDS011;28673;44.412;11.918;2023-04-09T00:52:37;32.03;;;19.92;;
43048;SDS011;28673;44.412;11.918;2023-04-09T00:55:03;29.88;;;19.45;;
43048;SDS011;28673;44.412;11.918;2023-04-09T00:57:30;25.50;;;16.83;;
43048;SDS011;28673;44.412;11.918;2023-04-09T00:59:57;25.42;;;17.13;;
43048;SDS011;28673;44.412;11.918;2023-04-09T01:02:23;26.42;;;17.70;;
43048;SDS011;28673;44.412;11.918;2023-04-09T01:04:49;19.77;;;15.15;;
43048;SDS011;28673;44.412;11.918;2023-04-09T01:10:00;20.70;;;15.25;;
43048;SDS011;28673;44.412;11.918;2023-04-09T01:15:37;26.08;;;15.02;;
43048;SDS011;28673;44.412;11.918;2023-04-09T01:18:51;20.38;;;14.82;;
43048;SDS011;28673;44.412;11.918;2023-04-09T01:23:33;18.73;;;14.13;;
43048;SDS011;28673;44.412;11.918;2023-04-09T01:28:53;18.08;;;13.45;;
43048;SDS011;28673;44.412;11.918;2023-04-09T01:31:24;18.52;;;12.82;;
43048;SDS011;28673;44.412;11.918;2023-04-09T01:33:53;18.73;;;12.65;;
43048;SDS011;28673;44.412;11.918;2023-04-09T01:36:20;16.45;;;12.50;;
43048;SDS011;28673;44.412;11.918;2023-04-09T01:38:46;17.48;;;12.05;;
43048;SDS011;28673;44.412;11.918;2023-04-09T01:41:16;20.05;;;13.55;;
43048;SDS011;28673;44.412;11.918;2023-04-09T01:43:46;15.75;;;12.68;;
43048;SDS011;28673;44.412;11.918;2023-04-09T01:46:19;22.45;;;13.30;;
43048;SDS011;28673;44.412;11.918;2023-04-09T01:48:46;20.45;;;12.55;;
43048;SDS011;28673;44.412;11.918;2023-04-09T01:51:13;17.35;;;12.95;;
43048;SDS011;28673;44.412;11.918;2023-04-09T01:53:40;16.85;;;12.30;;
43048;SDS011;28673;44.412;11.918;2023-04-09T01:56:06;20.48;;;12.55;;
43048;SDS011;28673;44.412;11.918;2023-04-09T01:58:33;18.40;;;12.05;;
43048;SDS011;28673;44.412;11.918;2023-04-09T02:01:11;22.25;;;12.70;;
43048;SDS011;28673;44.412;11.918;2023-04-09T02:03:45;15.27;;;12.07;;
43048;SDS011;28673;44.412;11.918;2023-04-09T02:06:24;16.17;;;11.90;;
43048;SDS011;28673;44.412;11.918;2023-04-09T02:09:06;22.95;;;12.20;;
43048;SDS011;28673;44.412;11.918;2023-04-09T02:11:33;18.50;;;12.50;;
43048;SDS011;28673;44.412;11.918;2023-04-09T02:14:05;15.32;;;12.13;;
43048;SDS011;28673;44.412;11.918;2023-04-09T02:16:33;17.60;;;13.23;;
43048;SDS011;28673;44.412;11.918;2023-04-09T02:19:00;18.85;;;12.15;;
43048;SDS011;28673;44.412;11.918;2023-04-09T02:21:27;20.15;;;13.15;;
43048;SDS011;28673;44.412;11.918;2023-04-09T02:23:54;20.15;;;13.27;;
43048;SDS011;28673;44.412;11.918;2023-04-09T02:26:20;15.93;;;11.70;;
43048;SDS011;28673;44.412;11.918;2023-04-09T02:28:46;20.33;;;15.00;;
43048;SDS011;28673;44.412;11.918;2023-04-09T02:31:12;25.50;;;14.52;;
43048;SDS011;28673;44.412;11.918;2023-04-09T02:33:38;25.50;;;18.10;;
43048;SDS011;28673;44.412;11.918;2023-04-09T02:36:04;22.90;;;15.68;;
43048;SDS011;28673;44.412;11.918;2023-04-09T02:38:30;38.72;;;24.90;;
43048;SDS011;28673;44.412;11.918;2023-04-09T02:40:57;42.08;;;26.70;;
43048;SDS011;28673;44.412;11.918;2023-04-09T02:43:22;37.58;;;24.70;;
43048;SDS011;28673;44.412;11.918;2023-04-09T02:45:48;42.88;;;27.75;;
43048;SDS011;28673;44.412;11.918;2023-04-09T02:48:14;39.72;;;25.02;;
43048;SDS011;28673;44.412;11.918;2023-04-09T02:50:42;38.05;;;23.27;;
43048;SDS011;28673;44.412;11.918;2023-04-09T02:53:08;39.10;;;24.85;;
43048;SDS011;28673;44.412;11.918;2023-04-09T02:55:34;37.75;;;26.75;;
43048;SDS011;28673;44.412;11.918;2023-04-09T02:58:00;39.20;;;26.42;;
43048;SDS011;28673;44.412;11.918;2023-04-09T03:00:26;42.67;;;27.85;;
43048;SDS011;28673;44.412;11.918;2023-04-09T03:02:53;53.03;;;28.23;;
43048;SDS011;28673;44.412;11.918;2023-04-09T03:05:19;42.78;;;27.70;;
43048;SDS011;28673;44.412;11.918;2023-04-09T03:07:45;42.50;;;27.50;;
43048;SDS011;28673;44.412;11.918;2023-04-09T03:10:11;48.92;;;27.52;;
43048;SDS011;28673;44.412;11.918;2023-04-09T03:12:37;37.75;;;26.35;;
43048;SDS011;28673;44.412;11.918;2023-04-09T03:15:03;41.63;;;27.73;;
43048;SDS011;28673;44.412;11.918;2023-04-09T03:17:29;36.33;;;24.83;;
43048;SDS011;28673;44.412;11.918;2023-04-09T03:19:56;31.02;;;22.98;;
43048;SDS011;28673;44.412;11.918;2023-04-09T03:22:22;39.58;;;25.92;;
43048;SDS011;28673;44.412;11.918;2023-04-09T03:24:51;33.33;;;22.70;;
43048;SDS011;28673;44.412;11.918;2023-04-09T03:27:17;36.40;;;24.50;;
43048;SDS011;28673;44.412;11.918;2023-04-09T03:29:46;34.25;;;22.88;;
43048;SDS011;28673;44.412;11.918;2023-04-09T03:32:13;35.97;;;23.63;;
43048;SDS011;28673;44.412;11.918;2023-04-09T03:34:39;35.72;;;24.00;;
43048;SDS011;28673;44.412;11.918;2023-04-09T03:37:05;30.95;;;21.05;;
43048;SDS011;28673;44.412;11.918;2023-04-09T03:39:31;29.58;;;21.60;;
43048;SDS011;28673;44.412;11.918;2023-04-09T03:41:57;29.25;;;21.00;;
43048;SDS011;28673;44.412;11.918;2023-04-09T03:44:26;26.75;;;20.13;;
43048;SDS011;28673;44.412;11.918;2023-04-09T03:47:06;31.52;;;22.00;;
43048;SDS011;28673;44.412;11.918;2023-04-09T03:49:34;28.15;;;20.63;;
43048;SDS011;28673;44.412;11.918;2023-04-09T03:52:07;33.50;;;21.13;;
43048;SDS011;28673;44.412;11.918;2023-04-09T03:54:38;33.78;;;21.05;;
43048;SDS011;28673;44.412;11.918;2023-04-09T03:57:10;42.33;;;25.55;;
43048;SDS011;28673;44.412;11.918;2023-04-09T03:59:38;39.05;;;24.70;;
43048;SDS011;28673;44.412;11.918;2023-04-09T04:02:05;39.78;;;26.83;;
43048;SDS011;28673;44.412;11.918;2023-04-09T04:04:34;40.42;;;26.80;;
43048;SDS011;28673;44.412;11.918;2023-04-09T04:07:03;44.28;;;28.65;;
43048;SDS011;28673;44.412;11.918;2023-04-09T04:09:34;41.92;;;28.23;;
43048;SDS011;28673;44.412;11.918;2023-04-09T04:12:06;41.38;;;26.98;;
43048;SDS011;28673;44.412;11.918;2023-04-09T04:14:53;38.55;;;25.38;;
43048;SDS011;28673;44.412;11.918;2023-04-09T04:17:30;42.17;;;25.40;;
43048;SDS011;28673;44.412;11.918;2023-04-09T04:19:56;37.92;;;24.13;;
43048;SDS011;28673;44.412;11.918;2023-04-09T04:22:22;42.78;;;26.55;;
43048;SDS011;28673;44.412;11.918;2023-04-09T04:24:52;39.45;;;23.38;;
43048;SDS011;28673;44.412;11.918;2023-04-09T04:27:20;34.58;;;22.60;;
43048;SDS011;28673;44.412;11.918;2023-04-09T04:29:46;35.03;;;23.08;;
43048;SDS011;28673;44.412;11.918;2023-04-09T04:32:34;35.83;;;23.10;;
43048;SDS011;28673;44.412;11.918;2023-04-09T04:35:04;31.52;;;21.67;;
43048;SDS011;28673;44.412;11.918;2023-04-09T04:37:30;38.28;;;22.27;;
43048;SDS011;28673;44.412;11.918;2023-04-09T04:40:04;30.88;;;21.25;;
43048;SDS011;28673;44.412;11.918;2023-04-09T04:42:35;29.08;;;21.00;;
43048;SDS011;28673;44.412;11.918;2023-04-09T04:45:08;27.52;;;18.33;;
43048;SDS011;28673;44.412;11.918;2023-04-09T04:47:48;26.73;;;18.33;;
43048;SDS011;28673;44.412;11.918;2023-04-09T04:50:14;23.27;;;17.08;;
43048;SDS011;28673;44.412;11.918;2023-04-09T04:52:51;21.08;;;15.38;;
43048;SDS011;28673;44.412;11.918;2023-04-09T04:55:19;20.65;;;15.38;;
43048;SDS011;28673;44.412;11.918;2023-04-09T04:57:47;20.95;;;13.88;;
43048;SDS011;28673;44.412;11.918;2023-04-09T05:00:17;20.60;;;14.23;;
43048;SDS011;28673;44.412;11.918;2023-04-09T05:02:44;20.83;;;14.23;;
43048;SDS011;28673;44.412;11.918;2023-04-09T05:05:31;20.15;;;13.77;;
43048;SDS011;28673;44.412;11.918;2023-04-09T05:07:58;16.52;;;12.13;;
43048;SDS011;28673;44.412;11.918;2023-04-09T05:10:24;15.43;;;12.63;;
43048;SDS011;28673;44.412;11.918;2023-04-09T05:12:51;15.20;;;11.80;;
43048;SDS011;28673;44.412;11.918;2023-04-09T05:15:24;13.02;;;10.90;;
43048;SDS011;28673;44.412;11.918;2023-04-09T05:17:50;22.65;;;14.00;;
43048;SDS011;28673;44.412;11.918;2023-04-09T05:20:18;21.27;;;12.13;;
43048;SDS011;28673;44.412;11.918;2023-04-09T05:22:55;19.30;;;12.32;;
43048;SDS011;28673;44.412;11.918;2023-04-09T05:25:28;15.43;;;11.57;;
43048;SDS011;28673;44.412;11.918;2023-04-09T05:27:54;18.25;;;12.23;;
43048;SDS011;28673;44.412;11.918;2023-04-09T05:30:20;20.15;;;13.52;;
43048;SDS011;28673;44.412;11.918;2023-04-09T05:32:51;16.58;;;12.27;;
43048;SDS011;28673;44.412;11.918;2023-04-09T05:35:19;18.17;;;12.30;;
43048;SDS011;28673;44.412;11.918;2023-04-09T05:37:46;16.40;;;11.93;;
43048;SDS011;28673;44.412;11.918;2023-04-09T05:40:17;26.20;;;13.90;;
43048;SDS011;28673;44.412;11.918;2023-04-09T05:42:44;17.08;;;12.75;;
43048;SDS011;28673;44.412;11.918;2023-04-09T05:45:21;18.58;;;12.48;;
43048;SDS011;28673;44.412;11.918;2023-04-09T05:47:51;20.33;;;12.98;;
43048;SDS011;28673;44.412;11.918;2023-04-09T05:50:19;19.05;;;14.77;;
43048;SDS011;28673;44.412;11.918;2023-04-09T05:52:47;21.75;;;14.15;;
43048;SDS011;28673;44.412;11.918;2023-04-09T05:55:13;20.67;;;14.57;;
43048;SDS011;28673;44.412;11.918;2023-04-09T05:57:47;21.50;;;14.40;;
43048;SDS011;28673;44.412;11.918;2023-04-09T06:00:13;20.52;;;14.25;;
43048;SDS011;28673;44.412;11.918;2023-04-09T06:02:43;20.10;;;14.48;;
43048;SDS011;28673;44.412;11.918;2023-04-09T06:05:09;24.23;;;15.60;;
43048;SDS011;28673;44.412;11.918;2023-04-09T06:07:35;18.80;;;14.48;;
43048;SDS011;28673;44.412;11.918;2023-04-09T06:10:01;25.23;;;16.50;;
43048;SDS011;28673;44.412;11.918;2023-04-09T06:12:27;22.27;;;15.35;;
43048;SDS011;28673;44.412;11.918;2023-04-09T06:14:53;23.52;;;16.73;;
43048;SDS011;28673;44.412;11.918;2023-04-09T06:17:19;23.08;;;17.25;;
43048;SDS011;28673;44.412;11.918;2023-04-09T06:19:45;23.23;;;15.88;;
43048;SDS011;28673;44.412;11.918;2023-04-09T06:22:11;23.65;;;15.25;;
43048;SDS011;28673;44.412;11.918;2023-04-09T06:24:36;20.90;;;14.25;;
43048;SDS011;28673;44.412;11.918;2023-04-09T06:27:02;26.05;;;15.35;;
43048;SDS011;28673;44.412;11.918;2023-04-09T06:29:28;28.38;;;17.05;;
43048;SDS011;28673;44.412;11.918;2023-04-09T06:31:55;35.22;;;16.77;;
43048;SDS011;28673;44.412;11.918;2023-04-09T06:34:21;27.23;;;15.68;;
43048;SDS011;28673;44.412;11.918;2023-04-09T06:36:47;19.70;;;15.70;;
43048;SDS011;28673;44.412;11.918;2023-04-09T06:39:12;24.65;;;15.50;;
43048;SDS011;28673;44.412;11.918;2023-04-09T06:41:38;27.20;;;16.40;;
43048;SDS011;28673;44.412;11.918;2023-04-09T06:44:17;24.33;;;16.02;;
43048;SDS011;28673;44.412;11.918;2023-04-09T06:46:44;23.27;;;16.50;;
43048;SDS011;28673;44.412;11.918;2023-04-09T06:49:11;25.25;;;15.48;;
43048;SDS011;28673;44.412;11.918;2023-04-09T06:51:37;20.92;;;15.60;;
43048;SDS011;28673;44.412;11.918;2023-04-09T06:54:03;25.50;;;17.30;;
43048;SDS011;28673;44.412;11.918;2023-04-09T06:56:29;19.00;;;14.45;;
43048;SDS011;28673;44.412;11.918;2023-04-09T06:58:55;29.67;;;15.90;;
43048;SDS011;28673;44.412;11.918;2023-04-09T07:01:21;24.65;;;15.85;;
43048;SDS011;28673;44.412;11.918;2023-04-09T07:03:46;21.75;;;14.73;;
43048;SDS011;28673;44.412;11.918;2023-04-09T07:06:12;25.67;;;16.10;;
43048;SDS011;28673;44.412;11.918;2023-04-09T07:08:38;19.73;;;15.07;;
43048;SDS011;28673;44.412;11.918;2023-04-09T07:11:04;21.00;;;15.07;;
43048;SDS011;28673;44.412;11.918;2023-04-09T07:13:30;20.45;;;13.75;;
43048;SDS011;28673;44.412;11.918;2023-04-09T07:15:57;24.90;;;15.45;;
43048;SDS011;28673;44.412;11.918;2023-04-09T07:18:22;16.90;;;12.98;;
43048;SDS011;28673;44.412;11.918;2023-04-09T07:20:48;21.52;;;14.60;;
43048;SDS011;28673;44.412;11.918;2023-04-09T07:23:15;20.10;;;13.70;;
43048;SDS011;28673;44.412;11.918;2023-04-09T07:25:41;20.33;;;13.25;;
43048;SDS011;28673;44.412;11.918;2023-04-09T07:28:07;20.20;;;13.20;;
43048;SDS011;28673;44.412;11.918;2023-04-09T07:30:34;18.52;;;13.43;;
43048;SDS011;28673;44.412;11.918;2023-04-09T07:33:00;16.42;;;13.85;;
43048;SDS011;28673;44.412;11.918;2023-04-09T07:35:26;17.52;;;13.60;;
43048;SDS011;28673;44.412;11.918;2023-04-09T07:37:51;21.88;;;12.70;;
43048;SDS011;28673;44.412;11.918;2023-04-09T07:40:17;16.98;;;13.57;;
43048;SDS011;28673;44.412;11.918;2023-04-09T07:42:44;17.65;;;13.52;;
43048;SDS011;28673;44.412;11.918;2023-04-09T07:45:09;20.80;;;16.00;;
43048;SDS011;28673;44.412;11.918;2023-04-09T07:47:36;17.55;;;13.25;;
43048;SDS011;28673;44.412;11.918;2023-04-09T07:50:03;27.05;;;14.13;;
43048;SDS011;28673;44.412;11.918;2023-04-09T07:52:29;16.08;;;12.68;;
43048;SDS011;28673;44.412;11.918;2023-04-09T07:54:55;17.50;;;13.60;;
43048;SDS011;28673;44.412;11.918;2023-04-09T07:57:21;18.95;;;14.13;;
43048;SDS011;28673;44.412;11.918;2023-04-09T07:59:47;23.35;;;16.33;;
43048;SDS011;28673;44.412;11.918;2023-04-09T08:02:13;22.48;;;13.07;;
43048;SDS011;28673;44.412;11.918;2023-04-09T08:04:39;17.80;;;13.80;;
43048;SDS011;28673;44.412;11.918;2023-04-09T08:07:05;20.17;;;12.80;;
43048;SDS011;28673;44.412;11.918;2023-04-09T08:09:32;24.10;;;13.98;;
43048;SDS011;28673;44.412;11.918;2023-04-09T08:11:57;18.83;;;13.48;;
43048;SDS011;28673;44.412;11.918;2023-04-09T08:14:23;16.60;;;12.23;;
43048;SDS011;28673;44.412;11.918;2023-04-09T08:16:49;17.98;;;12.48;;
43048;SDS011;28673;44.412;11.918;2023-04-09T08:19:15;20.42;;;11.43;;
43048;SDS011;28673;44.412;11.918;2023-04-09T08:21:42;16.75;;;11.48;;
43048;SDS011;28673;44.412;11.918;2023-04-09T08:24:08;14.35;;;10.10;;
43048;SDS011;28673;44.412;11.918;2023-04-09T08:26:39;18.48;;;10.38;;
43048;SDS011;28673;44.412;11.918;2023-04-09T08:29:06;15.38;;;10.32;;
43048;SDS011;28673;44.412;11.918;2023-04-09T08:31:33;17.88;;;10.82;;
43048;SDS011;28673;44.412;11.918;2023-04-09T08:34:00;15.25;;;9.43;;
43048;SDS011;28673;44.412;11.918;2023-04-09T08:36:26;16.55;;;9.50;;
43048;SDS011;28673;44.412;11.918;2023-04-09T08:38:51;13.35;;;9.13;;
43048;SDS011;28673;44.412;11.918;2023-04-09T08:41:20;12.93;;;8.70;;
43048;SDS011;28673;44.412;11.918;2023-04-09T08:43:50;10.10;;;8.40;;
43048;SDS011;28673;44.412;11.918;2023-04-09T08:46:17;10.65;;;7.93;;
43048;SDS011;28673;44.412;11.918;2023-04-09T08:48:45;7.85;;;6.80;;
43048;SDS011;28673;44.412;11.918;2023-04-09T08:51:12;11.68;;;6.03;;
43048;SDS011;28673;44.412;11.918;2023-04-09T08:53:46;8.95;;;7.20;;
43048;SDS011;28673;44.412;11.918;2023-04-09T08:56:23;8.57;;;7.15;;
43048;SDS011;28673;44.412;11.918;2023-04-09T08:58:50;13.68;;;6.57;;
43048;SDS011;28673;44.412;11.918;2023-04-09T09:01:29;9.23;;;6.38;;
43048;SDS011;28673;44.412;11.918;2023-04-09T09:03:58;7.97;;;5.68;;
43048;SDS011;28673;44.412;11.918;2023-04-09T09:06:37;6.40;;;5.05;;
43048;SDS011;28673;44.412;11.918;2023-04-09T09:09:09;6.22;;;4.90;;
43048;SDS011;28673;44.412;11.918;2023-04-09T09:14:05;6.75;;;4.82;;
43048;SDS011;28673;44.412;11.918;2023-04-09T09:16:33;9.05;;;5.90;;
43048;SDS011;28673;44.412;11.918;2023-04-09T09:19:04;8.07;;;5.55;;
43048;SDS011;28673;44.412;11.918;2023-04-09T09:21:30;10.82;;;5.82;;
43048;SDS011;28673;44.412;11.918;2023-04-09T09:23:57;108.85;;;57.70;;
43048;SDS011;28673;44.412;11.918;2023-04-09T09:26:24;20.40;;;13.68;;
43048;SDS011;28673;44.412;11.918;2023-04-09T09:31:23;250.05;;;133.63;;
43048;SDS011;28673;44.412;11.918;2023-04-09T09:33:49;234.45;;;125.13;;
43048;SDS011;28673;44.412;11.918;2023-04-09T09:36:31;201.52;;;109.03;;
43048;SDS011;28673;44.412;11.918;2023-04-09T09:38:59;19.05;;;13.25;;
43048;SDS011;28673;44.412;11.918;2023-04-09T09:41:34;68.97;;;36.80;;
43048;SDS011;28673;44.412;11.918;2023-04-09T09:44:00;56.08;;;28.98;;
43048;SDS011;28673;44.412;11.918;2023-04-09T09:46:30;90.78;;;46.03;;
43048;SDS011;28673;44.412;11.918;2023-04-09T09:48:58;72.65;;;36.83;;
43048;SDS011;28673;44.412;11.918;2023-04-09T09:51:25;88.07;;;49.05;;
43048;SDS011;28673;44.412;11.918;2023-04-09T09:53:57;9.73;;;7.18;;
43048;SDS011;28673;44.412;11.918;2023-04-09T09:56:24;102.90;;;75.45;;
43048;SDS011;28673;44.412;11.918;2023-04-09T10:01:47;20.70;;;10.82;;
43048;SDS011;28673;44.412;11.918;2023-04-09T10:04:22;16.85;;;10.95;;
43048;SDS011;28673;44.412;11.918;2023-04-09T10:06:52;16.85;;;12.85;;
43048;SDS011;28673;44.412;11.918;2023-04-09T10:09:18;5.22;;;3.22;;
43048;SDS011;28673;44.412;11.918;2023-04-09T10:11:46;4.60;;;3.42;;
43048;SDS011;28673;44.412;11.918;2023-04-09T10:14:13;4.63;;;4.13;;
43048;SDS011;28673;44.412;11.918;2023-04-09T10:16:40;7.45;;;5.20;;
43048;SDS011;28673;44.412;11.918;2023-04-09T10:19:06;4.80;;;3.58;;
43048;SDS011;28673;44.412;11.918;2023-04-09T10:24:17;10.30;;;6.82;;
43048;SDS011;28673;44.412;11.918;2023-04-09T10:26:44;33.95;;;19.38;;
43048;SDS011;28673;44.412;11.918;2023-04-09T10:29:11;23.75;;;14.80;;
43048;SDS011;28673;44.412;11.918;2023-04-09T10:31:50;10.52;;;8.85;;
43048;SDS011;28673;44.412;11.918;2023-04-09T10:34:27;87.68;;;54.22;;
43048;SDS011;28673;44.412;11.918;2023-04-09T10:36:57;12.45;;;9.90;;
43048;SDS011;28673;44.412;11.918;2023-04-09T10:39:27;55.08;;;38.38;;
43048;SDS011;28673;44.412;11.918;2023-04-09T10:41:57;28.27;;;18.70;;
43048;SDS011;28673;44.412;11.918;2023-04-09T10:44:31;191.55;;;114.78;;
43048;SDS011;28673;44.412;11.918;2023-04-09T10:46:59;136.73;;;89.80;;
43048;SDS011;28673;44.412;11.918;2023-04-09T10:49:30;57.45;;;36.67;;
43048;SDS011;28673;44.412;11.918;2023-04-09T10:52:04;281.77;;;173.68;;
43048;SDS011;28673;44.412;11.918;2023-04-09T10:54:39;399.77;;;261.23;;
43048;SDS011;28673;44.412;11.918;2023-04-09T10:57:14;421.23;;;265.52;;
43048;SDS011;28673;44.412;11.918;2023-04-09T10:59:43;389.00;;;259.00;;
43048;SDS011;28673;44.412;11.918;2023-04-09T11:02:40;334.30;;;203.80;;
43048;SDS011;28673;44.412;11.918;2023-04-09T11:05:35;104.97;;;67.38;;
43048;SDS011;28673;44.412;11.918;2023-04-09T11:10:37;92.45;;;63.50;;
43048;SDS011;28673;44.412;11.918;2023-04-09T11:13:06;386.48;;;246.27;;
43048;SDS011;28673;44.412;11.918;2023-04-09T11:15:37;319.85;;;192.50;;
43048;SDS011;28673;44.412;11.918;2023-04-09T11:18:03;259.92;;;181.85;;
43048;SDS011;28673;44.412;11.918;2023-04-09T11:20:32;98.82;;;65.13;;
43048;SDS011;28673;44.412;11.918;2023-04-09T11:22:58;102.18;;;60.72;;
43048;SDS011;28673;44.412;11.918;2023-04-09T11:25:26;49.47;;;30.33;;
43048;SDS011;28673;44.412;11.918;2023-04-09T11:27:53;16.33;;;9.50;;
43048;SDS011;28673;44.412;11.918;2023-04-09T11:30:19;27.05;;;15.27;;
43048;SDS011;28673;44.412;11.918;2023-04-09T11:32:45;13.80;;;7.70;;
43048;SDS011;28673;44.412;11.918;2023-04-09T11:35:16;10.43;;;6.40;;
43048;SDS011;28673;44.412;11.918;2023-04-09T11:37:43;7.15;;;5.28;;
43048;SDS011;28673;44.412;11.918;2023-04-09T11:40:20;5.20;;;4.22;;
43048;SDS011;28673;44.412;11.918;2023-04-09T11:42:48;5.80;;;3.72;;
43048;SDS011;28673;44.412;11.918;2023-04-09T11:45:16;3.50;;;2.47;;
43048;SDS011;28673;44.412;11.918;2023-04-09T11:47:43;4.82;;;2.22;;
43048;SDS011;28673;44.412;11.918;2023-04-09T11:50:10;4.80;;;1.85;;
43048;SDS011;28673;44.412;11.918;2023-04-09T11:52:37;2.55;;;1.83;;
43048;SDS011;28673;44.412;11.918;2023-04-09T11:55:04;2.38;;;1.52;;
43048;SDS011;28673;44.412;11.918;2023-04-09T11:57:44;2.53;;;1.58;;
43048;SDS011;28673;44.412;11.918;2023-04-09T12:00:14;2.05;;;1.55;;
43048;SDS011;28673;44.412;11.918;2023-04-09T12:02:45;1.83;;;1.40;;
43048;SDS011;28673;44.412;11.918;2023-04-09T12:05:19;2.40;;;1.70;;
43048;SDS011;28673;44.412;11.918;2023-04-09T12:07:47;1.75;;;1.50;;
43048;SDS011;28673;44.412;11.918;2023-04-09T12:10:13;1.83;;;1.60;;
43048;SDS011;28673;44.412;11.918;2023-04-09T12:12:40;2.30;;;1.42;;
43048;SDS011;28673;44.412;11.918;2023-04-09T12:15:23;5.15;;;2.17;;
43048;SDS011;28673;44.412;11.918;2023-04-09T12:17:53;3.85;;;2.95;;
43048;SDS011;28673;44.412;11.918;2023-04-09T12:20:26;4.75;;;2.25;;
43048;SDS011;28673;44.412;11.918;2023-04-09T12:22:56;3.47;;;3.17;;
43048;SDS011;28673;44.412;11.918;2023-04-09T12:25:24;3.38;;;2.20;;
43048;SDS011;28673;44.412;11.918;2023-04-09T12:27:50;2.95;;;2.42;;
43048;SDS011;28673;44.412;11.918;2023-04-09T12:30:16;1.90;;;1.48;;
43048;SDS011;28673;44.412;11.918;2023-04-09T12:32:42;2.67;;;1.90;;
43048;SDS011;28673;44.412;11.918;2023-04-09T12:35:10;1.45;;;1.02;;
43048;SDS011;28673;44.412;11.918;2023-04-09T12:37:36;2.40;;;1.70;;
43048;SDS011;28673;44.412;11.918;2023-04-09T12:40:02;2.35;;;1.70;;
43048;SDS011;28673;44.412;11.918;2023-04-09T12:42:28;1.08;;;0.98;;
43048;SDS011;28673;44.412;11.918;2023-04-09T12:44:53;2.40;;;1.30;;
43048;SDS011;28673;44.412;11.918;2023-04-09T12:47:19;1.80;;;1.30;;
43048;SDS011;28673;44.412;11.918;2023-04-09T12:49:45;2.58;;;1.30;;
43048;SDS011;28673;44.412;11.918;2023-04-09T12:52:11;1.60;;;1.50;;
43048;SDS011;28673;44.412;11.918;2023-04-09T12:54:37;1.27;;;1.00;;
43048;SDS011;28673;44.412;11.918;2023-04-09T12:57:04;7.38;;;1.55;;
43048;SDS011;28673;44.412;11.918;2023-04-09T12:59:30;2.22;;;0.85;;
43048;SDS011;28673;44.412;11.918;2023-04-09T13:01:56;1.10;;;1.00;;
43048;SDS011;28673;44.412;11.918;2023-04-09T13:04:22;2.80;;;1.20;;
43048;SDS011;28673;44.412;11.918;2023-04-09T13:06:48;1.30;;;1.17;;
43048;SDS011;28673;44.412;11.918;2023-04-09T13:09:14;2.47;;;1.60;;
43048;SDS011;28673;44.412;11.918;2023-04-09T13:11:40;1.27;;;0.85;;
43048;SDS011;28673;44.412;11.918;2023-04-09T13:14:06;4.80;;;2.20;;
43048;SDS011;28673;44.412;11.918;2023-04-09T13:16:38;2.08;;;1.20;;
43048;SDS011;28673;44.412;11.918;2023-04-09T13:19:05;3.33;;;1.08;;
43048;SDS011;28673;44.412;11.918;2023-04-09T13:21:32;1.17;;;0.98;;
43048;SDS011;28673;44.412;11.918;2023-04-09T13:23:58;1.02;;;0.93;;
43048;SDS011;28673;44.412;11.918;2023-04-09T13:26:24;2.17;;;1.17;;
43048;SDS011;28673;44.412;11.918;2023-04-09T13:28:50;2.42;;;0.95;;
43048;SDS011;28673;44.412;11.918;2023-04-09T13:31:16;4.55;;;1.38;;
43048;SDS011;28673;44.412;11.918;2023-04-09T13:33:42;4.00;;;1.15;;
43048;SDS011;28673;44.412;11.918;2023-04-09T13:36:08;5.85;;;1.35;;
43048;SDS011;28673;44.412;11.918;2023-04-09T13:38:34;1.33;;;1.05;;
43048;SDS011;28673;44.412;11.918;2023-04-09T13:40:59;3.88;;;0.93;;
43048;SDS011;28673;44.412;11.918;2023-04-09T13:43:25;2.45;;;0.90;;
43048;SDS011;28673;44.412;11.918;2023-04-09T13:45:53;5.68;;;1.45;;
43048;SDS011;28673;44.412;11.918;2023-04-09T13:48:19;2.78;;;1.08;;
43048;SDS011;28673;44.412;11.918;2023-04-09T13:50:46;1.65;;;0.90;;
43048;SDS011;28673;44.412;11.918;2023-04-09T13:53:12;1.48;;;1.38;;
43048;SDS011;28673;44.412;11.918;2023-04-09T13:55:38;5.15;;;3.28;;
43048;SDS011;28673;44.412;11.918;2023-04-09T13:58:04;6.68;;;2.72;;
43048;SDS011;28673;44.412;11.918;2023-04-09T14:00:30;2.95;;;1.10;;
43048;SDS011;28673;44.412;11.918;2023-04-09T14:02:56;7.32;;;2.60;;
43048;SDS011;28673;44.412;11.918;2023-04-09T14:05:22;2.15;;;1.30;;
43048;SDS011;28673;44.412;11.918;2023-04-09T14:07:48;3.33;;;1.20;;
43048;SDS011;28673;44.412;11.918;2023-04-09T14:10:14;1.58;;;1.00;;
43048;SDS011;28673;44.412;11.918;2023-04-09T14:12:41;2.45;;;1.00;;
43048;SDS011;28673;44.412;11.918;2023-04-09T14:15:06;2.97;;;1.20;;
43048;SDS011;28673;44.412;11.918;2023-04-09T14:17:33;1.38;;;0.90;;
43048;SDS011;28673;44.412;11.918;2023-04-09T14:19:58;1.15;;;1.05;;
43048;SDS011;28673;44.412;11.918;2023-04-09T14:22:27;1.02;;;0.90;;
43048;SDS011;28673;44.412;11.918;2023-04-09T14:24:53;1.45;;;1.35;;
43048;SDS011;28673;44.412;11.918;2023-04-09T14:27:19;3.13;;;1.55;;
43048;SDS011;28673;44.412;11.918;2023-04-09T14:29:45;2.85;;;1.10;;
43048;SDS011;28673;44.412;11.918;2023-04-09T14:32:11;2.88;;;1.92;;
43048;SDS011;28673;44.412;11.918;2023-04-09T14:34:36;3.03;;;2.22;;
43048;SDS011;28673;44.412;11.918;2023-04-09T14:37:02;2.75;;;1.38;;
43048;SDS011;28673;44.412;11.918;2023-04-09T14:39:28;1.58;;;1.23;;
43048;SDS011;28673;44.412;11.918;2023-04-09T14:41:54;2.38;;;1.25;;
43048;SDS011;28673;44.412;11.918;2023-04-09T14:44:21;1.50;;;1.08;;
43048;SDS011;28673;44.412;11.918;2023-04-09T14:46:49;2.40;;;1.10;;